Time;durP1;ratioP1;P1;durP2;ratioP2;P2;SDS_P1;SDS_P2;PMS_P1;PMS_P2;Temp;Humidity;BMP_temperature;BMP_pressure;BME280_temperature;BME280_humidity;BME280_pressure;Samples;Min_cycle;Max_cycle;Signal;HPM_P1;HPM_P2
2023/01/04 00:01:11;;;;;;;9.13;1.48;;;;;;;-148.88;99.39;77008.34;5034104;28;20513;-76
2023/01/04 00:03:36;;;;;;;6.07;1.20;;;;;;;-148.88;99.15;76998.16;5033916;28;20447;-76
2023/01/04 00:06:04;;;;;;;3.05;1.35;;;;;;;-148.88;99.21;76992.06;5034012;28;20108;-76
2023/01/04 00:08:30;;;;;;;4.80;1.00;;;;;;;-148.88;98.88;76988.00;5033933;28;20029;-76
2023/01/04 00:11:07;;;;;;;2.33;1.10;;;;;;;-148.88;98.31;76977.84;5034022;28;20136;-76
2023/01/04 00:13:33;;;;;;;3.38;1.30;;;;;;;-148.88;98.49;76983.94;5034066;28;20029;-76
2023/01/04 00:16:05;;;;;;;8.50;1.48;;;;;;;-148.88;98.64;76979.88;5034247;28;20025;-76
2023/01/04 00:18:31;;;;;;;3.58;1.20;;;;;;;-148.88;98.47;76971.75;5016176;28;20512;-76
2023/01/04 00:21:10;;;;;;;5.68;1.10;;;;;;;-148.88;98.52;76983.94;5034019;28;20065;-76
2023/01/04 00:23:37;;;;;;;6.68;1.00;;;;;;;-148.88;98.27;76971.75;5016010;28;20056;-76
2023/01/04 00:26:06;;;;;;;2.75;1.02;;;;;;;-148.88;98.08;76967.69;5032347;28;20036;-76
2023/01/04 00:28:31;;;;;;;4.65;1.13;;;;;;;-148.88;98.49;76973.78;5033643;28;20036;-76
2023/01/04 00:31:01;;;;;;;4.45;0.93;;;;;;;-148.88;98.22;76961.59;5033827;28;20025;-76
2023/01/04 00:33:26;;;;;;;6.97;1.13;;;;;;;-148.88;97.88;76953.47;5033301;28;20040;-76
2023/01/04 00:35:52;;;;;;;3.08;1.00;;;;;;;-148.88;98.09;76951.44;5033562;28;20025;-76
2023/01/04 00:38:17;;;;;;;3.78;1.23;;;;;;;-148.88;98.01;76947.38;5033430;28;20025;-76
2023/01/04 00:40:42;;;;;;;2.22;1.00;;;;;;;-148.88;97.32;76935.19;5033420;28;20025;-76
2023/01/04 00:43:08;;;;;;;3.15;1.10;;;;;;;-148.88;97.39;76939.25;5033384;28;20013;-75
2023/01/04 00:45:33;;;;;;;3.78;1.30;;;;;;;-148.88;97.39;76920.97;5033588;28;20457;-75
2023/01/04 00:47:58;;;;;;;6.80;1.15;;;;;;;-148.88;96.95;76904.72;5033350;28;20021;-76
2023/01/04 00:50:23;;;;;;;5.80;1.25;;;;;;;-148.88;96.27;76894.56;5032918;28;20488;-76
2023/01/04 00:52:49;;;;;;;2.50;1.05;;;;;;;-148.88;96.42;76896.59;5033412;28;20017;-76
2023/01/04 00:55:14;;;;;;;4.13;1.02;;;;;;;-148.88;96.13;76884.38;5033073;28;20057;-76
2023/01/04 00:57:39;;;;;;;2.72;1.00;;;;;;;-148.88;96.21;76878.28;5033392;28;20022;-76
2023/01/04 01:00:05;;;;;;;10.75;1.30;;;;;;;-148.88;96.50;76890.50;5033397;28;20071;-76
2023/01/04 01:02:30;;;;;;;5.32;1.35;;;;;;;-148.88;96.52;76890.50;5033028;28;20017;-76
2023/01/04 01:04:56;;;;;;;2.38;0.90;;;;;;;-148.88;96.87;76884.38;5033057;28;20025;-76
2023/01/04 01:07:21;;;;;;;4.70;0.80;;;;;;;-148.88;97.33;76886.41;5032926;28;20485;-76
2023/01/04 01:09:46;;;;;;;2.92;1.13;;;;;;;-148.88;97.17;76878.28;5033059;28;20079;-76
2023/01/04 01:12:11;;;;;;;4.18;1.20;;;;;;;-148.88;97.29;76874.22;5015239;28;20389;-76
2023/01/04 01:14:37;;;;;;;7.47;1.42;;;;;;;-148.88;97.22;76876.25;5032790;28;20032;-76
2023/01/04 01:17:02;;;;;;;3.15;1.30;;;;;;;-148.88;97.57;76882.34;5032875;28;20036;-76
2023/01/04 01:19:28;;;;;;;4.80;1.17;;;;;;;-148.88;97.68;76878.28;5032801;28;20033;-76
2023/01/04 01:21:53;;;;;;;5.78;1.50;;;;;;;-148.88;97.27;76870.16;5015199;28;20026;-76
2023/01/04 01:24:19;;;;;;;3.78;1.58;;;;;;;-148.88;97.05;76857.97;5032789;28;20024;-76
2023/01/04 01:26:45;;;;;;;2.83;1.35;;;;;;;-148.88;96.50;76845.78;5033146;28;20389;-76
2023/01/04 01:29:10;;;;;;;7.78;1.60;;;;;;;-148.88;96.30;76835.63;5033165;28;20025;-76
2023/01/04 01:31:36;;;;;;;7.90;1.30;;;;;;;-148.88;96.28;76825.47;5032756;28;20037;-76
2023/01/04 01:34:01;;;;;;;4.40;1.17;;;;;;;-148.88;96.09;76821.41;5014739;28;20025;-76
2023/01/04 01:36:27;;;;;;;7.55;1.48;;;;;;;-148.88;95.98;76805.16;5032672;28;20029;-76
2023/01/04 01:38:53;;;;;;;4.70;1.65;;;;;;;-148.88;95.82;76805.16;5032858;28;20033;-76
2023/01/04 01:41:24;;;;;;;5.10;1.08;;;;;;;-148.88;95.74;76795.00;5033121;28;20099;-76
2023/01/04 01:43:59;;;;;;;5.05;1.30;;;;;;;-148.88;95.55;76784.84;5014862;28;20018;-76
2023/01/04 01:46:38;;;;;;;4.78;1.08;;;;;;;-148.88;94.79;76766.56;5032793;28;20057;-76
2023/01/04 01:49:13;;;;;;;3.83;1.08;;;;;;;-148.88;94.07;76752.31;5014834;28;20039;-76
2023/01/04 01:51:39;;;;;;;4.80;1.30;;;;;;;-148.88;94.19;76740.13;5032535;28;20510;-76
2023/01/04 01:54:12;;;;;;;5.35;1.30;;;;;;;-148.88;93.87;76740.13;5032455;28;20021;-76
2023/01/04 01:56:41;;;;;;;5.68;1.13;;;;;;;-148.88;93.60;76732.00;5032792;28;20033;-76
2023/01/04 01:59:08;;;;;;;4.00;1.25;;;;;;;-148.88;93.48;76723.88;5032426;28;20033;-76
2023/01/04 02:01:35;;;;;;;2.90;0.93;;;;;;;-148.88;93.26;76707.63;5015604;28;20032;-76
2023/01/04 02:04:02;;;;;;;2.35;1.00;;;;;;;-148.88;93.89;76705.59;5036335;28;20104;-76
2023/01/04 02:06:36;;;;;;;3.17;1.20;;;;;;;-148.88;95.40;76707.63;5036395;28;20032;-76
2023/01/04 02:09:02;;;;;;;4.90;1.20;;;;;;;-148.88;96.38;76711.69;5036828;28;20021;-76
2023/01/04 02:11:27;;;;;;;4.90;1.33;;;;;;;-148.88;97.72;76707.63;5018485;28;20044;-76
2023/01/04 02:16:52;;;;;;;4.75;1.25;;;;;;;-148.88;100.00;76715.75;5036694;28;20053;-76
2023/01/04 02:19:36;;;;;;;2.42;1.23;;;;;;;-148.88;100.00;76727.94;5036047;28;20068;-76
2023/01/04 02:22:38;;;;;;;3.53;1.10;;;;;;;-148.88;100.00;76723.88;5035986;28;20021;-76
2023/01/04 02:25:21;;;;;;;5.47;1.48;;;;;;;-148.88;100.00;76723.88;5035857;28;20021;-76
2023/01/04 02:27:58;;;;;;;4.88;1.55;;;;;;;-148.88;100.00;76715.75;5018178;28;20037;-76
2023/01/04 02:30:55;;;;;;;6.05;1.55;;;;;;;-148.88;100.00;76732.00;5018166;28;20112;-76
2023/01/04 02:33:52;;;;;;;5.63;1.30;;;;;;;-148.88;100.00;76715.75;5035715;28;20060;-77
2023/01/04 02:36:43;;;;;;;5.40;1.50;;;;;;;-148.88;100.00;76732.00;5022417;28;20555;-76
2023/01/04 02:39:24;;;;;;;4.15;1.25;;;;;;;-148.88;100.00;76732.00;5035837;28;20032;-76
2023/01/04 02:41:57;;;;;;;7.35;1.50;;;;;;;-148.88;100.00;76717.78;5036062;28;20025;-76
2023/01/04 02:45:03;;;;;;;3.43;1.30;;;;;;;-148.88;100.00;76707.63;5035713;28;20572;-76
2023/01/04 02:50:30;;;;;;;6.72;1.42;;;;;;;-148.88;100.00;76705.59;5035809;28;20394;-76
2023/01/04 02:53:03;;;;;;;4.10;1.63;;;;;;;-148.88;100.00;76709.66;5035550;28;20100;-77
2023/01/04 02:55:40;;;;;;;5.15;1.85;;;;;;;-148.88;100.00;76699.50;5035439;28;20128;-76
2023/01/04 02:58:31;;;;;;;3.88;1.27;;;;;;;-148.88;100.00;76711.69;5035477;28;20491;-76
2023/01/04 03:07:27;;;;;;;8.98;1.55;;;;;;;-148.88;100.00;76695.44;5035227;28;20120;-77
2023/01/04 03:10:01;;;;;;;10.70;2.42;;;;;;;-148.88;100.00;76691.38;5035291;28;20021;-77
2023/01/04 03:12:32;;;;;;;;;;;;;;;-148.88;100.00;76689.34;5035353;28;20041;-76
2023/01/04 03:15:07;;;;;;;8.65;1.70;;;;;;;-148.88;100.00;76685.28;5034973;28;20332;-77
2023/01/04 03:17:44;;;;;;;5.05;1.45;;;;;;;-148.88;100.00;76677.16;5035053;28;20413;-76
2023/01/04 03:20:12;;;;;;;5.68;2.03;;;;;;;-148.88;100.00;76683.25;5035396;28;20417;-77
2023/01/04 03:37:13;;;;;;;4.93;1.92;;;;;;;-148.88;100.00;76622.31;5035149;28;20044;-87
2023/01/04 03:48:30;;;;;;;5.45;1.52;;;;;;;-148.88;100.00;76589.78;5015203;28;20096;-76
2023/01/04 03:51:01;;;;;;;3.67;1.30;;;;;;;-148.88;100.00;76567.44;5013231;28;20079;-75
2023/01/04 03:53:28;;;;;;;7.20;1.50;;;;;;;-148.88;100.00;76573.53;5014610;28;20033;-75
2023/01/04 03:55:56;;;;;;;3.75;1.35;;;;;;;-148.88;100.00;76551.19;5013190;28;20087;-75
2023/01/04 03:58:22;;;;;;;3.92;1.23;;;;;;;-148.88;100.00;76561.34;5014598;28;20113;-75
2023/01/04 04:00:47;;;;;;;5.32;1.23;;;;;;;-148.88;100.00;76549.16;5014299;28;20120;-75
2023/01/04 04:03:12;;;;;;;4.80;1.40;;;;;;;-148.88;100.00;76547.13;5014181;28;20075;-75
2023/01/04 04:08:26;;;;;;;5.18;1.65;;;;;;;-148.88;100.00;76534.94;5014224;28;20044;-75
2023/01/04 04:10:53;;;;;;;5.80;1.25;;;;;;;-148.88;100.00;76532.91;5014415;28;20025;-76
2023/01/04 04:13:18;;;;;;;5.47;1.60;;;;;;;-148.88;100.00;76524.78;5013935;28;20029;-75
2023/01/04 04:15:43;;;;;;;4.07;1.60;;;;;;;-148.88;100.00;76516.66;5014346;28;20041;-76
2023/01/04 04:18:09;;;;;;;6.40;1.73;;;;;;;-148.88;100.00;76508.53;5014025;28;20516;-76
2023/01/04 04:20:34;;;;;;;2.10;1.23;;;;;;;-148.88;100.00;76512.59;5014805;28;20107;-75
2023/01/04 04:22:59;;;;;;;2.55;1.38;;;;;;;-148.88;100.00;76504.47;5014084;28;20505;-75
2023/01/04 04:25:25;;;;;;;3.33;1.13;;;;;;;-148.88;100.00;76496.34;5013573;28;20034;-76
2023/01/04 04:27:50;;;;;;;7.03;1.98;;;;;;;-148.88;100.00;76484.16;5014347;28;20374;-75
2023/01/04 04:30:15;;;;;;;4.95;1.40;;;;;;;-148.88;100.00;76476.03;5014037;28;20072;-75
2023/01/04 04:32:41;;;;;;;4.03;1.48;;;;;;;-148.88;100.00;76476.03;5013789;28;20042;-76
2023/01/04 04:35:06;;;;;;;4.40;1.73;;;;;;;-148.88;100.00;76476.03;5013602;28;20072;-76
2023/01/04 04:37:33;;;;;;;2.80;1.40;;;;;;;-148.88;100.00;76457.75;5013695;28;20033;-76
2023/01/04 04:39:58;;;;;;;2.50;1.30;;;;;;;-148.88;100.00;76439.47;5014520;28;20080;-75
2023/01/04 04:42:23;;;;;;;5.38;1.23;;;;;;;-148.88;100.00;76435.41;5015713;28;20025;-75
2023/01/04 04:44:49;;;;;;;3.42;1.63;;;;;;;-148.88;100.00;76431.34;5033251;28;20428;-76
2023/01/04 04:47:14;;;;;;;4.57;1.50;;;;;;;-148.88;100.00;76419.16;5033234;28;20018;-76
2023/01/04 04:49:39;;;;;;;5.18;1.45;;;;;;;-148.88;100.00;76415.06;5015497;28;20044;-76
2023/01/04 04:52:05;;;;;;;2.72;1.17;;;;;;;-148.88;100.00;76411.00;5033457;28;20052;-76
2023/01/04 04:54:30;;;;;;;3.55;1.20;;;;;;;-148.88;100.00;76411.00;5033018;28;20456;-76
2023/01/04 04:56:55;;;;;;;4.65;1.30;;;;;;;-148.88;100.00;76406.94;5033114;28;20056;-76
2023/01/04 04:59:20;;;;;;;3.75;1.20;;;;;;;-148.88;100.00;76392.72;5033302;28;20032;-75
2023/01/04 05:01:46;;;;;;;4.43;1.00;;;;;;;-148.88;100.00;76378.50;5033487;28;20124;-76
2023/01/04 05:04:15;;;;;;;3.88;1.38;;;;;;;-148.88;100.00;76386.63;5033151;28;20021;-76
2023/01/04 05:06:44;;;;;;;2.42;1.38;;;;;;;-148.88;100.00;76386.63;5033285;28;20112;-76
2023/01/04 05:09:10;;;;;;;2.80;1.35;;;;;;;-148.88;100.00;76374.44;5033126;28;20105;-76
2023/01/04 05:14:19;;;;;;;3.20;1.25;;;;;;;-148.88;100.00;76374.44;5032853;28;20068;-76
2023/01/04 05:16:45;;;;;;;4.82;1.17;;;;;;;-148.88;100.00;76364.28;5015084;28;20053;-75
2023/01/04 05:19:10;;;;;;;3.42;1.20;;;;;;;-148.88;100.00;76354.13;5032791;28;20021;-76
2023/01/04 05:21:35;;;;;;;2.72;1.15;;;;;;;-148.88;100.00;76364.28;5033134;28;20339;-76
2023/01/04 05:24:00;;;;;;;5.80;1.33;;;;;;;-148.88;100.00;76352.09;5032980;28;20100;-76
2023/01/04 05:26:26;;;;;;;1.77;1.13;;;;;;;-148.88;100.00;76335.84;5032833;28;20025;-76
2023/01/04 05:28:51;;;;;;;2.63;1.20;;;;;;;-148.88;100.00;76321.63;5015172;28;20032;-76
2023/01/04 05:31:16;;;;;;;1.80;1.00;;;;;;;-148.88;100.00;76307.41;5032897;28;20029;-76
2023/01/04 05:33:42;;;;;;;2.55;1.60;;;;;;;-148.88;100.00;76293.19;5032599;28;20025;-75
2023/01/04 05:36:07;;;;;;;3.15;1.00;;;;;;;-148.88;100.00;76301.31;5034614;28;20032;-75
2023/01/04 05:38:33;;;;;;;2.53;1.15;;;;;;;-148.88;100.00;76301.31;5036751;28;20397;-75
2023/01/04 05:40:59;;;;;;;3.25;1.42;;;;;;;-148.88;100.00;76285.06;5036840;28;20037;-75
2023/01/04 05:43:24;;;;;;;2.22;1.30;;;;;;;-148.88;100.00;76285.06;5036861;28;20071;-76
2023/01/04 05:45:55;;;;;;;3.55;1.50;;;;;;;-148.88;100.00;76248.50;5018899;28;20105;-76
2023/01/04 05:48:22;;;;;;;2.92;1.45;;;;;;;-148.88;100.00;76248.50;5036519;28;20482;-75
2023/01/04 05:50:48;;;;;;;3.88;2.17;;;;;;;-148.88;100.00;76232.25;5036489;28;20032;-75
2023/01/04 05:53:17;;;;;;;2.78;1.85;;;;;;;-148.88;100.00;76232.25;5036363;28;20017;-75
2023/01/04 05:55:43;;;;;;;2.60;2.08;;;;;;;-148.88;100.00;76232.25;5018647;28;20033;-75
2023/01/04 05:58:12;;;;;;;2.72;1.13;;;;;;;-148.88;100.00;76232.25;5018557;28;20045;-75
2023/01/04 06:00:38;;;;;;;4.70;1.20;;;;;;;-148.88;100.00;76226.16;5036359;28;20507;-75
2023/01/04 06:03:03;;;;;;;3.10;1.73;;;;;;;-148.88;100.00;76224.13;5036520;28;20036;-75
2023/01/04 06:05:29;;;;;;;2.67;1.45;;;;;;;-148.88;100.00;76230.22;5036498;28;20099;-76
2023/01/04 06:07:54;;;;;;;5.78;1.60;;;;;;;-148.88;100.00;76211.94;5036777;28;20033;-75
2023/01/04 06:10:20;;;;;;;1.77;1.15;;;;;;;-148.88;100.00;76213.97;5036246;28;20477;-75
2023/01/04 06:12:46;;;;;;;2.72;1.25;;;;;;;-148.88;100.00;76209.91;5036749;28;20087;-75
2023/01/04 06:15:11;;;;;;;2.80;1.65;;;;;;;-148.88;100.00;76216.00;5036080;28;20362;-75
2023/01/04 06:17:38;;;;;;;2.53;1.65;;;;;;;-148.88;100.00;76216.00;5036124;28;20025;-75
2023/01/04 06:20:05;;;;;;;2.63;1.20;;;;;;;-148.88;100.00;76211.94;5036075;28;20025;-75
2023/01/04 06:22:31;;;;;;;2.58;1.50;;;;;;;-148.88;100.00;76211.94;5036267;28;20022;-75
2023/01/04 06:24:57;;;;;;;2.58;1.48;;;;;;;-148.88;100.00;76207.88;5035879;28;20029;-75
2023/01/04 06:27:22;;;;;;;2.67;1.50;;;;;;;-148.88;100.00;76189.59;5035888;28;20033;-76
2023/01/04 06:29:47;;;;;;;3.50;1.45;;;;;;;-148.88;100.00;76195.69;5035885;28;20132;-76
2023/01/04 06:32:13;;;;;;;3.75;1.77;;;;;;;-148.88;100.00;76191.63;5035860;28;20021;-75
2023/01/04 06:34:38;;;;;;;2.83;1.80;;;;;;;-148.88;100.00;76201.78;5035697;28;20028;-75
2023/01/04 06:37:04;;;;;;;2.85;1.65;;;;;;;-148.88;100.00;76175.38;5035843;28;20025;-75
2023/01/04 06:39:30;;;;;;;3.22;1.60;;;;;;;-148.88;100.00;76187.56;5035579;28;20056;-75
2023/01/04 06:41:55;;;;;;;3.35;1.63;;;;;;;-148.88;100.00;76187.56;5035572;28;20041;-75
2023/01/04 06:44:20;;;;;;;4.18;2.08;;;;;;;-148.88;100.00;76169.28;5035497;28;20124;-75
2023/01/04 06:46:45;;;;;;;6.90;1.90;;;;;;;-148.88;100.00;76179.44;5035512;28;20021;-75
2023/01/04 06:49:11;;;;;;;5.50;1.70;;;;;;;-148.88;100.00;76175.38;5035772;28;20029;-74
2023/01/04 06:51:36;;;;;;;3.80;1.85;;;;;;;-148.88;100.00;76144.91;5017892;28;20351;-75
2023/01/04 06:54:01;;;;;;;4.95;2.05;;;;;;;-148.88;100.00;76155.06;5035266;28;20415;-75
2023/01/04 06:56:27;;;;;;;2.65;1.55;;;;;;;-148.88;100.00;76165.22;5035689;28;20021;-75
2023/01/04 06:58:52;;;;;;;2.75;2.05;;;;;;;-148.88;100.00;76169.28;5035300;28;20485;-75
2023/01/04 07:01:18;;;;;;;5.70;2.33;;;;;;;-148.88;100.00;76167.25;5035437;28;20060;-75
2023/01/04 07:03:43;;;;;;;3.53;2.28;;;;;;;-148.88;100.00;76151.00;5035353;28;20021;-75
2023/01/04 07:06:09;;;;;;;3.53;1.98;;;;;;;-148.88;100.00;76151.00;5035396;28;20105;-75
2023/01/04 07:08:34;;;;;;;4.72;2.25;;;;;;;-148.88;100.00;76159.13;5035071;28;20071;-75
2023/01/04 07:11:00;;;;;;;3.67;1.92;;;;;;;-148.88;100.00;76126.59;5035097;28;20108;-75
2023/01/04 07:13:25;;;;;;;3.63;2.10;;;;;;;-148.88;100.00;76140.84;5034861;28;20117;-75
2023/01/04 07:15:51;;;;;;;3.42;2.20;;;;;;;-148.88;100.00;76157.09;5035036;28;20033;-75
2023/01/04 07:18:16;;;;;;;5.10;2.40;;;;;;;-148.88;100.00;76142.88;5035140;28;20114;-75
2023/01/04 07:20:42;;;;;;;5.20;2.42;;;;;;;-148.88;100.00;76138.81;5035392;28;20025;-75
2023/01/04 07:23:07;;;;;;;5.60;2.50;;;;;;;-148.88;100.00;76134.72;5035025;28;20021;-75
2023/01/04 07:25:33;;;;;;;3.88;2.72;;;;;;;-148.88;100.00;76134.72;5035303;28;20033;-75
2023/01/04 07:27:59;;;;;;;2.97;1.95;;;;;;;-148.88;100.00;76132.72;5035173;28;20029;-75
2023/01/04 07:30:24;;;;;;;4.32;2.67;;;;;;;-148.88;100.00;76142.88;5034705;28;20072;-75
2023/01/04 07:32:51;;;;;;;4.20;2.33;;;;;;;-148.88;100.00;76134.72;5034674;28;20026;-76
2023/01/04 07:35:16;;;;;;;4.43;2.33;;;;;;;-148.88;100.00;76122.56;5034979;28;20095;-75
2023/01/04 07:37:42;;;;;;;4.20;2.50;;;;;;;-148.88;100.00;76118.47;5034523;28;20021;-75
2023/01/04 07:40:08;;;;;;;4.70;2.75;;;;;;;-148.88;100.00;76140.84;5034438;28;20041;-75
2023/01/04 07:42:35;;;;;;;3.63;2.45;;;;;;;-148.88;100.00;76138.81;5017553;28;20025;-76
2023/01/04 07:45:00;;;;;;;3.08;2.05;;;;;;;-148.88;100.00;76126.59;5034536;28;20421;-76
2023/01/04 07:47:27;;;;;;;4.15;2.00;;;;;;;-148.88;100.00;76134.72;5034446;28;20028;-75
2023/01/04 07:49:52;;;;;;;5.20;2.30;;;;;;;-148.88;100.00;76122.56;5034322;28;20056;-76
2023/01/04 07:52:17;;;;;;;2.97;1.70;;;;;;;-148.88;100.00;76126.59;5034367;28;20430;-76
2023/01/04 07:54:42;;;;;;;3.47;2.47;;;;;;;-148.88;100.00;76126.59;5034057;28;20026;-76
2023/01/04 07:57:08;;;;;;;3.50;2.75;;;;;;;-148.88;100.00;76126.59;5034748;28;20044;-75
2023/01/04 07:59:33;;;;;;;4.43;2.35;;;;;;;-148.88;100.00;76124.56;5033140;28;20018;-76
2023/01/04 08:01:58;;;;;;;4.03;1.90;;;;;;;-148.88;100.00;76134.72;5016727;28;20021;-76
2023/01/04 08:04:24;;;;;;;3.92;2.30;;;;;;;-148.88;100.00;76118.47;5034677;28;20408;-76
2023/01/04 08:06:50;;;;;;;2.83;2.10;;;;;;;-148.88;100.00;76136.78;5034107;28;20033;-75
2023/01/04 08:09:16;;;;;;;5.10;2.28;;;;;;;-148.88;100.00;76126.59;5033963;28;20489;-76
2023/01/04 08:11:42;;;;;;;5.45;3.65;;;;;;;-148.88;100.00;76128.66;5034053;28;20025;-79
2023/01/04 08:14:07;;;;;;;3.90;2.33;;;;;;;-148.88;100.00;76128.66;5034082;28;20436;-76
2023/01/04 08:16:36;;;;;;;6.80;2.50;;;;;;;-148.88;100.00;76122.56;5033992;28;20147;-75
2023/01/04 08:19:13;;;;;;;3.70;1.92;;;;;;;-148.88;100.00;76138.81;5033898;28;20033;-76
2023/01/04 08:21:39;;;;;;;4.00;2.17;;;;;;;-148.88;100.00;76118.47;5033973;28;20029;-76
2023/01/04 08:24:05;;;;;;;3.15;2.30;;;;;;;-148.88;100.00;76124.56;5033703;28;20382;-76
2023/01/04 08:26:31;;;;;;;4.93;2.55;;;;;;;-148.88;100.00;76112.41;5033721;28;20436;-76
2023/01/04 08:28:57;;;;;;;4.05;2.20;;;;;;;-148.88;100.00;76114.41;5033724;28;20437;-76
2023/01/04 08:31:25;;;;;;;4.10;2.25;;;;;;;-148.88;100.00;76114.41;5033571;28;20370;-76
2023/01/04 08:33:52;;;;;;;3.95;2.60;;;;;;;-148.88;100.00;76094.09;5033555;28;20021;-75
2023/01/04 08:36:25;;;;;;;4.30;2.72;;;;;;;-148.88;100.00;76098.16;5033572;28;20092;-75
2023/01/04 08:38:54;;;;;;;3.38;2.33;;;;;;;-148.88;100.00;76102.22;5033755;28;20383;-75
2023/01/04 08:41:19;;;;;;;6.25;2.40;;;;;;;-148.88;100.00;76090.03;5033546;28;20033;-75
2023/01/04 08:43:44;;;;;;;4.18;2.60;;;;;;;-148.88;100.00;76090.03;5033299;28;20036;-75
2023/01/04 08:46:11;;;;;;;4.97;2.17;;;;;;;-148.88;100.00;76090.03;5015642;28;20108;-75
2023/01/04 08:48:37;;;;;;;4.25;2.85;;;;;;;-148.88;100.00;76075.81;5033426;28;20060;-76
2023/01/04 08:51:05;;;;;;;4.43;2.47;;;;;;;-148.88;100.00;76073.78;5015571;28;20032;-77
2023/01/04 08:53:31;;;;;;;4.72;2.70;;;;;;;-148.88;100.00;76077.84;5033161;28;20048;-76
2023/01/04 08:55:59;;;;;;;4.80;2.70;;;;;;;-148.88;100.00;76071.75;5033770;28;20021;-76
2023/01/04 08:58:25;;;;;;;3.65;2.42;;;;;;;-148.88;100.00;76065.66;5033611;28;20021;-75
2023/01/04 09:00:50;;;;;;;3.60;2.45;;;;;;;-148.88;100.00;76065.66;5033210;28;20027;-75
2023/01/04 09:03:16;;;;;;;4.28;2.50;;;;;;;-148.88;100.00;76059.56;5033644;28;20018;-75
2023/01/04 09:05:41;;;;;;;3.90;2.47;;;;;;;-148.88;100.00;76065.66;5033279;28;20063;-75
2023/01/04 09:08:06;;;;;;;4.15;2.25;;;;;;;-148.88;100.00;76043.31;5015380;28;20026;-75
2023/01/04 09:10:32;;;;;;;4.03;2.60;;;;;;;-148.88;100.00;76053.47;5032838;28;20029;-75
2023/01/04 09:12:57;;;;;;;4.57;3.05;;;;;;;-148.88;100.00;76045.34;5032893;28;20033;-74
2023/01/04 09:15:22;;;;;;;4.55;2.67;;;;;;;-148.88;100.00;76061.59;5032957;28;20446;-75
2023/01/04 09:17:51;;;;;;;4.47;2.83;;;;;;;-148.88;100.00;76039.25;5033272;28;20025;-75
2023/01/04 09:20:16;;;;;;;3.35;2.10;;;;;;;-148.88;100.00;76029.09;5033014;28;20482;-75
2023/01/04 09:22:41;;;;;;;3.55;2.28;;;;;;;-148.88;100.00;76031.13;5032887;28;20032;-75
2023/01/04 09:25:07;;;;;;;5.13;3.00;;;;;;;-148.88;100.00;76035.19;5015212;28;20025;-77
2023/01/04 09:27:32;;;;;;;4.30;3.00;;;;;;;-148.88;100.00;76033.16;5033752;28;20036;-77
2023/01/04 09:29:58;;;;;;;5.03;2.88;;;;;;;-148.88;100.00;76029.09;5015577;28;20064;-76
2023/01/04 09:32:23;;;;;;;4.80;2.67;;;;;;;-148.88;100.00;76008.78;5033552;28;20021;-76
2023/01/04 09:34:49;;;;;;;5.00;3.13;;;;;;;-148.88;100.00;76006.75;5033115;28;20034;-77
2023/01/04 09:37:14;;;;;;;3.05;2.00;;;;;;;-148.88;100.00;76008.78;5033370;28;20033;-77
2023/01/04 09:39:40;;;;;;;3.42;2.45;;;;;;;-148.88;100.00;76004.72;5033791;28;20025;-77
2023/01/04 09:42:35;;;;;;;3.72;2.30;;;;;;;-148.88;100.00;76004.72;5033459;28;20124;-76
2023/01/04 09:45:16;;;;;;;3.65;2.17;;;;;;;-148.88;100.00;76008.78;5032922;28;20029;-77
2023/01/04 09:47:49;;;;;;;4.25;3.50;;;;;;;-148.88;100.00;76008.78;5033747;28;20030;-77
2023/01/04 09:50:20;;;;;;;4.45;3.70;;;;;;;-148.88;100.00;76000.66;5034294;28;20112;-76
2023/01/04 09:52:54;;;;;;;2.83;1.90;;;;;;;-148.88;100.00;76000.66;5033756;28;20040;-76
2023/01/04 09:55:31;;;;;;;3.47;2.20;;;;;;;-148.88;100.00;75984.41;5015549;28;20068;-77
2023/01/04 09:58:25;;;;;;;3.55;2.47;;;;;;;-148.88;100.00;75988.47;5033175;28;20025;-77
2023/01/04 10:01:06;;;;;;;4.38;1.90;;;;;;;-148.88;100.00;75992.53;5033214;28;20033;-77
2023/01/04 10:03:37;;;;;;;4.93;2.20;;;;;;;-148.88;100.00;76000.66;5033563;28;20096;-77
2023/01/04 10:06:05;;;;;;;5.30;2.15;;;;;;;-148.88;100.00;75984.41;5032881;28;20604;-77
2023/01/04 10:08:30;;;;;;;3.67;1.92;;;;;;;-148.88;100.00;75988.47;5033114;28;20416;-77
2023/01/04 10:11:31;;;;;;;2.88;2.05;;;;;;;-148.88;100.00;75976.28;5015447;28;20032;-77
2023/01/04 10:14:24;;;;;;;4.60;2.00;;;;;;;-148.88;100.00;75978.31;5033135;28;20101;-77
2023/01/04 10:17:11;;;;;;;3.50;2.67;;;;;;;-148.88;100.00;75968.16;5033302;28;20022;-77
2023/01/04 10:20:04;;;;;;;3.50;2.05;;;;;;;-148.88;100.00;75972.22;5033296;28;20031;-77
2023/01/04 10:22:55;;;;;;;2.85;1.85;;;;;;;-148.88;100.00;75958.00;5033086;28;20025;-77
2023/01/04 10:25:30;;;;;;;3.22;1.80;;;;;;;-148.88;100.00;75947.84;5036536;28;20482;-77
2023/01/04 10:28:14;;;;;;;3.25;1.90;;;;;;;-148.88;100.00;75953.94;5036370;28;20029;-77
2023/01/04 10:30:57;;;;;;;2.60;1.60;;;;;;;-148.88;100.00;75953.94;5036429;28;20076;-76
2023/01/04 10:33:47;;;;;;;2.97;1.98;;;;;;;-148.88;100.00;75943.78;5035833;28;20025;-76
2023/01/04 10:36:19;;;;;;;2.72;1.85;;;;;;;-148.88;100.00;75923.47;5035755;28;20498;-77
2023/01/04 10:38:46;;;;;;;2.60;1.70;;;;;;;-148.88;100.00;75935.66;5036184;28;20033;-77
2023/01/04 10:41:20;;;;;;;2.83;1.75;;;;;;;-148.88;100.00;75933.63;5036235;28;20285;-77
2023/01/04 10:44:18;;;;;;;4.32;2.90;;;;;;;-148.88;100.00;75931.59;5018745;28;20021;-76
2023/01/04 10:46:55;;;;;;;3.25;2.17;;;;;;;-148.88;100.00;75927.53;5036642;28;20427;-77
2023/01/04 10:49:45;;;;;;;4.10;2.70;;;;;;;-148.88;100.00;75921.44;5036458;28;20025;-77
2023/01/04 10:52:26;;;;;;;4.63;2.50;;;;;;;-148.88;100.00;75923.47;5017999;28;20028;-77
2023/01/04 10:55:03;;;;;;;3.95;2.38;;;;;;;-148.88;100.00;75921.44;5035729;28;20052;-77
2023/01/04 10:57:54;;;;;;;3.55;2.53;;;;;;;-148.88;100.00;75927.53;5036814;28;20044;-77
2023/01/04 11:00:40;;;;;;;4.28;2.28;;;;;;;-148.88;100.00;75923.47;5020239;28;20025;-78
2023/01/04 11:03:30;;;;;;;4.50;2.35;;;;;;;-148.88;100.00;75927.53;5037568;28;20025;-77
2023/01/04 11:06:22;;;;;;;3.97;2.33;;;;;;;-148.88;100.00;75907.22;5037998;28;20022;-77
2023/01/04 11:09:00;;;;;;;3.80;2.35;;;;;;;-148.88;100.00;75909.25;5036562;28;20037;-77
2023/01/04 11:11:29;;;;;;;7.65;2.58;;;;;;;-148.88;100.00;75897.06;5037266;28;20093;-77
2023/01/04 11:13:54;;;;;;;3.75;2.67;;;;;;;-148.88;100.00;75890.97;5036366;28;20029;-79
2023/01/04 11:16:20;;;;;;;6.82;3.10;;;;;;;-148.88;100.00;75895.03;5036773;28;20032;-78
2023/01/04 11:18:48;;;;;;;4.78;2.88;;;;;;;-148.88;100.00;75888.94;5036776;28;20385;-77
2023/01/04 11:21:17;;;;;;;4.97;3.10;;;;;;;-148.88;100.00;75874.72;5036933;28;20033;-77
2023/01/04 11:23:42;;;;;;;5.65;5.05;;;;;;;-148.88;100.00;75880.81;5036479;28;20047;-77
2023/01/04 11:26:18;;;;;;;5.03;4.50;;;;;;;-148.88;100.00;75870.66;5036360;28;20464;-75
2023/01/04 11:28:55;;;;;;;3.80;2.60;;;;;;;-148.88;100.00;75860.50;5036230;28;20033;-77
2023/01/04 11:31:42;;;;;;;6.07;3.17;;;;;;;-148.88;100.00;75854.41;5036334;28;20057;-77
2023/01/04 11:34:07;;;;;;;4.97;4.47;;;;;;;-148.88;100.00;75860.50;5035854;28;20021;-77
2023/01/04 11:36:37;;;;;;;6.75;5.72;;;;;;;-148.88;100.00;75838.16;5035819;28;20025;-77
2023/01/04 11:39:23;;;;;;;6.20;4.07;;;;;;;-148.88;100.00;75850.34;5035813;28;20037;-77
2023/01/04 11:42:03;;;;;;;6.65;4.68;;;;;;;-148.88;100.00;75838.16;5038867;28;20040;-77
2023/01/04 11:44:33;;;;;;;5.18;3.95;;;;;;;-148.88;100.00;75819.88;5039074;28;20101;-77
2023/01/04 11:47:18;;;;;;;6.45;4.05;;;;;;;-148.88;100.00;75825.97;5022138;28;20017;-77
2023/01/04 11:49:43;;;;;;;5.15;3.80;;;;;;;-148.88;100.00;75813.78;5018833;28;20039;-77
2023/01/04 11:52:38;;;;;;;6.53;5.70;;;;;;;-148.88;100.00;75817.84;5018392;28;20124;-77
2023/01/04 11:55:23;;;;;;;6.90;4.05;;;;;;;-148.88;100.00;75809.72;5035115;28;20052;-77
2023/01/04 11:58:14;;;;;;;5.93;3.70;;;;;;;-148.88;100.00;75789.41;5035654;28;20028;-77
2023/01/04 12:00:51;;;;;;;7.47;5.03;;;;;;;-148.88;100.00;75773.16;5035771;28;20026;-78
2023/01/04 12:03:21;;;;;;;6.88;4.85;;;;;;;-148.88;100.00;75789.41;5037808;28;20033;-77
2023/01/04 12:05:46;;;;;;;6.47;5.88;;;;;;;-148.88;100.00;75765.03;5037333;28;20018;-77